Time;durP1;ratioP1;P1;durP2;ratioP2;P2;SDS_P1;SDS_P2;PMS_P1;PMS_P2;Temp;Humidity;BMP_temperature;BMP_pressure;BME280_temperature;BME280_humidity;BME280_pressure;Samples;Min_cycle;Max_cycle;Signal;HPM_P1;HPM_P2
2023/05/08 00:02:00;;;;;;;;;;;;;;;10.52;79.72;101261.59;5002680;28;19936;-93
2023/05/08 00:05:07;;;;;;;;;;;;;;;10.63;79.35;101260.59;5024464;28;19943;-95
2023/05/08 00:07:51;;;;;;;;;;;;;;;10.71;79.03;101260.69;5033832;28;19921;-96
2023/05/08 00:10:21;;;;;;;;;;;;;;;10.71;78.99;101263.38;5032853;28;19945;-95
2023/05/08 00:13:09;;;;;;;;;;;;;;;;;;;;;
2023/05/08 00:15:49;;;;;;;;;;;;;;;10.69;78.28;101268.06;5004487;28;19975;-96
2023/05/08 00:18:20;;;;;;;;;;;;;;;10.69;77.53;101268.06;4991304;28;19943;-93
2023/05/08 00:20:59;;;;;;;;;;;;;;;10.67;76.53;101264.66;4980792;28;19960;-93
2023/05/08 00:23:30;;;;;;;;;;;;;;;10.71;75.77;101271.44;4983760;28;19967;-95
2023/05/08 00:26:15;;;;;;;;;;;;;;;10.72;74.93;101257.03;5016197;28;20367;-95
2023/05/08 00:28:48;;;;;;;;;;;;;;;10.71;74.58;101266.06;4994357;28;19926;-96
2023/05/08 00:31:31;;;;;;;;;;;;;;;10.75;74.46;101259.41;4977986;28;19926;-96
2023/05/08 00:34:02;;;;;;;;;;;;;;;10.71;74.39;101259.84;4977196;28;19925;-96
2023/05/08 00:39:59;;;;;;;;;;;;;;;10.66;73.82;101262.97;5035078;28;19918;-94
2023/05/08 00:42:41;;;;;;;;;;;;;;;10.64;73.85;101259.59;5017557;28;19922;-94
2023/05/08 00:45:11;;;;;;;;;;;;;;;10.63;73.90;101263.28;5015408;28;19925;-94
2023/05/08 00:47:48;;;;;;;;;;;;;;;10.57;73.65;101269.22;5032781;28;19909;-95
2023/05/08 00:50:20;;;;;;;;;;;;;;;10.49;73.65;101267.28;5008226;28;20019;-95
2023/05/08 00:52:49;;;;;;;;;;;;;;;10.57;73.46;101270.06;4978318;28;19929;-94
2023/05/08 00:55:46;;;;;;;;;;;;;;;10.56;73.33;101263.00;4998476;28;20061;-95
2023/05/08 00:58:22;;;;;;;;;;;;;;;10.53;73.71;101262.44;5019288;28;20005;-93
2023/05/08 01:00:58;;;;;;;;;;;;;;;10.57;73.53;101259.31;5017174;28;19952;-93
2023/05/08 01:03:46;;;;;;;;;;;;;;;10.55;73.33;101260.47;4992323;28;19922;-93
2023/05/08 01:06:44;;;;;;;;;;;;;;;10.59;73.25;101263.72;5004519;28;19936;-96
2023/05/08 01:09:26;;;;;;;;;;;;;;;10.56;73.06;101262.16;4996804;28;19945;-93
2023/05/08 01:12:21;;;;;;;;;;;;;;;10.47;73.11;101263.88;5017980;28;20035;-93
2023/05/08 01:15:08;;;;;;;;;;;;;;;10.55;73.08;101255.09;4998113;28;19930;-93
2023/05/08 01:18:02;;;;;;;;;;;;;;;10.59;72.77;101252.97;5015145;28;19914;-91
2023/05/08 01:20:34;;;;;;;;;;;;;;;10.47;73.11;101252.28;5009739;28;20459;-93
2023/05/08 01:23:20;;;;;;;;;;;;;;;10.50;72.99;101247.44;4992459;28;20031;-95
2023/05/08 01:25:54;;;;;;;;;;;;;;;10.44;72.84;101248.06;5015416;28;19980;-92
2023/05/08 01:28:41;;;;;;;;;;;;;;;10.42;73.26;101238.41;5021931;28;19922;-93
2023/05/08 01:31:16;;;;;;;;;;;;;;;10.44;73.41;101236.44;5000103;28;20133;-95
2023/05/08 01:34:05;;;;;;;;;;;;;;;10.34;72.92;101236.47;5013745;28;19925;-94
2023/05/08 01:36:53;;;;;;;;;;;;;;;10.48;72.98;101236.00;4993507;28;19928;-91
2023/05/08 01:39:42;;;;;;;;;;;;;;;10.49;72.64;101229.63;5012049;28;19954;-94
2023/05/08 01:42:19;;;;;;;;;;;;;;;10.49;73.02;101234.19;4997387;28;19929;-95
2023/05/08 01:44:50;;;;;;;;;;;;;;;10.42;73.09;101233.91;5001441;28;20412;-93
2023/05/08 01:47:16;;;;;;;;;;;;;;;10.46;73.44;101229.06;5023402;28;19925;-94
2023/05/08 01:50:11;;;;;;;;;;;;;;;10.43;73.01;101230.22;4983394;28;19980;-94
2023/05/08 01:52:49;;;;;;;;;;;;;;;10.34;73.24;101231.94;5006647;28;19917;-93
2023/05/08 01:55:27;;;;;;;;;;;;;;;10.44;73.60;101237.31;4970588;28;20004;-94
2023/05/08 01:58:18;;;;;;;;;;;;;;;10.32;74.09;101238.44;5007722;28;19989;-93
2023/05/08 02:00:46;;;;;;;;;;;;;;;10.35;74.24;101238.19;5012880;28;19948;-94
2023/05/08 02:03:14;;;;;;;;;;;;;;;10.34;74.13;101234.63;4996347;28;19917;-93
2023/05/08 02:05:44;;;;;;;;;;;;;;;10.42;73.60;101230.34;4979990;28;19926;-94
2023/05/08 02:08:11;;;;;;;;;;;;;;;10.45;73.29;101233.59;4987590;28;19939;-95
2023/05/08 02:10:38;;;;;;;;;;;;;;;10.51;72.92;101233.03;4992022;28;19940;-95
2023/05/08 02:13:08;;;;;;;;;;;;;;;10.38;72.79;101237.03;5009841;28;20435;-93
2023/05/08 02:15:37;;;;;;;;;;;;;;;10.35;72.88;101233.63;5005924;28;19921;-93
2023/05/08 02:18:17;;;;;;;;;;;;;;;10.33;72.96;101241.00;5016747;28;19925;-94
2023/05/08 02:20:48;;;;;;;;;;;;;;;10.34;72.68;101237.31;4989749;28;19931;-93
2023/05/08 02:23:27;;;;;;;;;;;;;;;10.33;72.50;101238.31;5011200;28;19921;-94
2023/05/08 02:29:02;;;;;;;;;;;;;;;10.43;71.80;101226.69;5006071;28;19928;-95
2023/05/08 02:31:37;;;;;;;;;;;;;;;10.39;71.75;101234.19;4988649;28;20062;-94
2023/05/08 02:34:11;;;;;;;;;;;;;;;10.30;72.24;101230.53;4978475;28;20378;-95
2023/05/08 02:36:42;;;;;;;;;;;;;;;10.30;72.33;101229.66;5000908;28;19917;-93
2023/05/08 02:39:13;;;;;;;;;;;;;;;10.36;72.22;101223.72;5015558;28;19933;-94
2023/05/08 02:41:39;;;;;;;;;;;;;;;10.41;71.94;101228.66;4996938;28;19996;-92
2023/05/08 02:44:10;;;;;;;;;;;;;;;10.42;72.06;101223.16;4995283;28;20244;-93
2023/05/08 02:46:47;;;;;;;;;;;;;;;10.43;71.88;101222.16;4976770;28;19980;-92
2023/05/08 02:49:32;;;;;;;;;;;;;;;10.30;72.12;101227.84;4988181;28;19918;-93
2023/05/08 02:52:16;;;;;;;;;;;;;;;10.27;72.84;101224.56;4978010;28;19937;-93
2023/05/08 02:54:50;;;;;;;;;;;;;;;10.21;72.47;101227.81;5014425;28;19910;-93
2023/05/08 02:57:34;;;;;;;;;;;;;;;10.32;72.68;101228.56;4999041;28;19949;-90
2023/05/08 03:00:26;;;;;;;;;;;;;;;10.33;72.27;101227.56;5009760;28;19924;-93
2023/05/08 03:03:12;;;;;;;;;;;;;;;10.39;72.21;101239.56;5012347;28;19921;-92
2023/05/08 03:05:44;;;;;;;;;;;;;;;10.40;72.17;101230.50;4991076;28;19930;-92
2023/05/08 03:08:13;;;;;;;;;;;;;;;10.33;72.10;101227.56;4980273;28;19934;-92
2023/05/08 03:10:39;;;;;;;;;;;;;;;10.41;72.25;101225.97;4975632;28;20006;-90
2023/05/08 03:13:05;;;;;;;;;;;;;;;10.40;71.71;101232.38;4975820;28;19973;-94
2023/05/08 03:15:57;;;;;;;;;;;;;;;10.44;71.22;101237.31;4991866;28;19914;-94
2023/05/08 03:18:30;;;;;;;;;;;;;;;10.40;71.02;101229.69;4971259;28;19931;-93
2023/05/08 03:20:58;;;;;;;;;;;;;;;10.44;70.95;101247.19;4983381;28;19997;-94
2023/05/08 03:23:47;;;;;;;;;;;;;;;;;;;;;
2023/05/08 03:26:42;;;;;;;;;;;;;;;10.53;70.04;101249.00;4992565;28;19949;-94
2023/05/08 03:29:10;;;;;;;;;;;;;;;10.56;69.94;101246.88;4989311;28;19982;-95
2023/05/08 03:32:33;;;;;;;;;;;;;;;10.63;69.84;101239.06;4989407;28;19957;-93
2023/05/08 03:38:53;;;;;;;;;;;;;;;10.71;69.09;101244.56;4969823;28;20094;-93
2023/05/08 03:41:34;;;;;;;;;;;;;;;10.74;69.08;101249.63;4994769;28;19918;-93
2023/05/08 03:44:01;;;;;;;;;;;;;;;10.82;69.15;101250.75;4991726;28;19978;-92
2023/05/08 03:46:47;;;;;;;;;;;;;;;10.90;68.47;101251.69;4978258;28;19941;-93
2023/05/08 03:49:17;;;;;;;;;;;;;;;11.02;68.24;101259.56;4992016;28;19986;-92
2023/05/08 03:51:49;;;;;;;;;;;;;;;11.08;68.06;101257.13;4962289;28;19922;-93
2023/05/08 03:55:08;;;;;;;;;;;;;;;;;;;;;
2023/05/08 03:57:06;;;;;;;;;;;;;;;11.25;67.37;101252.78;4951550;28;19949;-92
2023/05/08 03:59:50;;;;;;;;;;;;;;;11.37;67.28;101250.72;5002649;28;19924;-93
2023/05/08 04:02:25;;;;;;;;;;;;;;;11.41;67.50;101257.50;5007903;28;19941;-93
2023/05/08 04:05:11;;;;;;;;;;;;;;;11.57;67.37;101256.84;5016701;28;19962;-94
2023/05/08 04:07:43;;;;;;;;;;;;;;;11.64;67.32;101257.06;5017377;28;19937;-94
2023/05/08 04:10:48;;;;;;;;;;;;;;;11.73;67.45;101251.59;4992812;28;20348;-92
2023/05/08 04:13:22;;;;;;;;;;;;;;;11.89;67.60;101260.84;5028618;28;19925;-92
2023/05/08 04:15:53;;;;;;;;;;;;;;;12.01;66.54;101262.31;5008383;28;19980;-93
2023/05/08 04:18:21;;;;;;;;;;;;;;;12.12;65.92;101269.31;4994824;28;20028;-92
2023/05/08 04:20:50;;;;;;;;;;;;;;;12.20;65.72;101277.47;5001186;28;19937;-91
2023/05/08 04:23:23;;;;;;;;;;;;;;;12.30;65.61;101270.13;5015262;28;19960;-95
2023/05/08 04:25:51;;;;;;;;;;;;;;;12.38;64.58;101272.03;5027712;28;19917;-93
2023/05/08 04:28:21;;;;;;;;;;;;;;;12.48;64.47;101274.63;5016699;28;19921;-93
2023/05/08 04:31:05;;;;;;;;;;;;;;;12.48;64.93;101271.91;5018103;28;20054;-94
2023/05/08 04:33:39;;;;;;;;;;;;;;;12.64;64.88;101262.09;5027743;28;19913;-94
2023/05/08 04:36:09;;;;;;;;;;;;;;;12.81;64.65;101264.88;5014536;28;19995;-92
2023/05/08 04:38:39;;;;;;;;;;;;;;;13.04;64.40;101257.91;5034707;28;19914;-93
2023/05/08 04:41:07;;;;;;;;;;;;;;;13.33;63.09;101256.69;5009763;28;19948;-93
2023/05/08 04:43:38;;;;;;;;;;;;;;;13.66;63.04;101252.19;4987859;28;19925;-93
2023/05/08 04:46:06;;;;;;;;;;;;;;;13.96;62.51;101251.72;5030951;28;19931;-92
2023/05/08 04:48:32;;;;;;;;;;;;;;;14.22;62.23;101246.13;5009555;28;19933;-94
2023/05/08 04:50:58;;;;;;;;;;;;;;;14.55;62.20;101253.19;5006369;28;19925;-91
2023/05/08 04:53:29;;;;;;;;;;;;;;;14.72;61.97;101258.56;5017161;28;19922;-94
2023/05/08 04:55:58;;;;;;;;;;;;;;;14.96;61.19;101250.38;5001691;28;19909;-96
2023/05/08 04:58:33;;;;;;;;;;;;;;;14.95;60.69;101258.66;5013467;28;19933;-93
2023/05/08 05:01:02;;;;;;;;;;;;;;;15.05;61.83;101263.88;5016598;28;20009;-94
2023/05/08 05:03:30;;;;;;;;;;;;;;;15.30;61.10;101261.91;4988810;28;19929;-90
2023/05/08 05:05:59;;;;;;;;;;;;;;;15.45;61.61;101253.84;5001890;28;20058;-92
2023/05/08 05:08:25;;;;;;;;;;;;;;;15.62;61.70;101258.16;5005075;28;19905;-91
2023/05/08 05:10:51;;;;;;;;;;;;;;;15.89;60.80;101261.38;4997018;28;19944;-94
2023/05/08 05:13:24;;;;;;;;;;;;;;;16.10;61.61;101264.25;5001818;28;19925;-95
2023/05/08 05:15:54;;;;;;;;;;;;;;;16.34;60.22;101259.63;5030213;28;19975;-95
2023/05/08 05:18:25;;;;;;;;;;;;;;;16.59;60.15;101263.78;5024517;28;20040;-94
2023/05/08 05:20:56;;;;;;;;;;;;;;;16.77;58.12;101257.16;4992773;28;19992;-96
2023/05/08 05:23:35;;;;;;;;;;;;;;;16.95;58.06;101256.78;4978827;28;20356;-95
2023/05/08 05:26:14;;;;;;;;;;;;;;;16.98;56.82;101254.56;4994575;28;19933;-95
2023/05/08 05:28:41;;;;;;;;;;;;;;;17.43;56.37;101244.44;4992346;28;19979;-94
2023/05/08 05:31:17;;;;;;;;;;;;;;;17.73;52.05;101255.22;5002969;28;19993;-96
2023/05/08 05:34:00;;;;;;;;;;;;;;;17.82;50.87;101248.66;4963243;28;19933;-93
2023/05/08 05:36:26;;;;;;;;;;;;;;;17.75;49.89;101253.16;4978044;28;20013;-93
2023/05/08 05:39:14;;;;;;;;;;;;;;;17.98;48.60;101253.00;4993948;28;19930;-94
2023/05/08 05:42:16;;;;;;;;;;;;;;;17.50;49.48;101241.81;5003841;28;20024;-93
2023/05/08 05:45:47;;;;;;;;;;;;;;;;;;;;;
2023/05/08 05:48:22;;;;;;;;;;;;;;;17.44;50.93;101248.88;5007099;28;19926;-94
2023/05/08 05:51:30;;;;;;;;;;;;;;;;;;;;;
2023/05/08 05:54:36;;;;;;;;;;;;;;;17.56;50.67;101253.78;4967686;28;19922;-95
2023/05/08 05:57:07;;;;;;;;;;;;;;;17.78;49.67;101262.81;4935060;28;19942;-94
2023/05/08 05:59:42;;;;;;;;;;;;;;;17.99;49.84;101259.28;4949868;28;20014;-93
2023/05/08 06:02:35;;;;;;;;;;;;;;;18.23;48.70;101264.28;4957077;29;19926;-90
2023/05/08 06:05:05;;;;;;;;;;;;;;;17.93;49.73;101261.75;4961520;29;19936;-93
2023/05/08 06:07:34;;;;;;;;;;;;;;;17.97;49.65;101266.78;4951091;28;19933;-90
2023/05/08 06:10:01;;;;;;;;;;;;;;;18.02;49.65;101261.59;4972901;28;20032;-92
2023/05/08 06:12:27;;;;;;;;;;;;;;;17.95;48.42;101257.97;5006946;28;19944;-88
2023/05/08 06:17:53;;;;;;;;;;;;;;;17.95;50.12;101263.41;4982877;28;19921;-89
2023/05/08 06:20:28;;;;;;;;;;;;;;;;;;;;;
2023/05/08 06:23:12;;;;;;;;;;;;;;;18.14;52.32;101279.94;5009146;28;19917;-91
2023/05/08 06:26:14;;;;;;;;;;;;;;;18.51;51.28;101271.63;5008898;28;19929;-93
2023/05/08 06:28:39;;;;;;;;;;;;;;;18.85;50.83;101270.00;4979748;28;19932;-89
2023/05/08 06:31:15;;;;;;;;;;;;;;;19.46;50.31;101277.41;5004408;28;19936;-90
2023/05/08 06:33:41;;;;;;;;;;;;;;;19.58;50.08;101278.50;4980844;28;19917;-89
2023/05/08 06:36:08;;;;;;;;;;;;;;;18.97;51.18;101274.69;4974742;28;20353;-89
2023/05/08 06:38:36;;;;;;;;;;;;;;;19.33;50.58;101284.47;4975719;28;19933;-88
2023/05/08 06:41:02;;;;;;;;;;;;;;;19.26;51.48;101282.78;4982340;28;19950;-90
2023/05/08 06:43:56;;;;;;;;;;;;;;;19.71;49.14;101281.25;4995135;28;20045;-92
2023/05/08 06:46:22;;;;;;;;;;;;;;;19.39;47.68;101291.84;5014790;28;19921;-87
2023/05/08 06:48:47;;;;;;;;;;;;;;;19.51;48.84;101291.28;5019488;28;20180;-91
2023/05/08 06:51:26;;;;;;;;;;;;;;;19.99;47.24;101286.59;4998522;28;19909;-92
2023/05/08 06:53:52;;;;;;;;;;;;;;;19.92;46.56;101291.16;5029921;28;19991;-92
2023/05/08 06:56:21;;;;;;;;;;;;;;;19.63;46.26;101299.69;4980130;28;19941;-90
2023/05/08 06:58:47;;;;;;;;;;;;;;;19.31;47.02;101302.09;5009053;28;19937;-88
2023/05/08 07:01:15;;;;;;;;;;;;;;;19.13;46.20;101300.75;5011740;28;19930;-89
2023/05/08 07:03:42;;;;;;;;;;;;;;;18.94;47.92;101299.59;4993516;28;19925;-93
2023/05/08 07:06:11;;;;;;;;;;;;;;;18.92;48.67;101295.41;4989969;28;19961;-94
2023/05/08 07:09:04;;;;;;;;;;;;;;;19.29;49.21;101296.00;4999380;28;19918;-94
2023/05/08 07:11:52;;;;;;;;;;;;;;;19.39;48.23;101282.84;5014574;28;19924;-91
2023/05/08 07:14:17;;;;;;;;;;;;;;;19.85;47.60;101286.75;5012357;28;19921;-92
2023/05/08 07:16:44;;;;;;;;;;;;;;;19.77;47.34;101293.25;4989716;28;19928;-93
2023/05/08 07:19:35;;;;;;;;;;;;;;;19.71;46.70;101274.97;4978240;28;19998;-93
2023/05/08 07:22:03;;;;;;;;;;;;;;;20.44;45.41;101267.69;4981064;28;21160;-90
2023/05/08 07:24:30;;;;;;;;;;;;;;;20.62;44.02;101266.22;5012242;28;19925;-90
2023/05/08 07:26:58;;;;;;;;;;;;;;;20.07;45.37;101273.78;4992674;28;19957;-89
2023/05/08 07:29:26;;;;;;;;;;;;;;;19.44;46.45;101274.88;4992876;28;19921;-88
2023/05/08 07:31:51;;;;;;;;;;;;;;;19.03;47.92;101273.00;4978579;28;19917;-88
2023/05/08 07:34:21;;;;;;;;;;;;;;;20.09;46.44;101271.66;5008628;28;19971;-87
2023/05/08 07:36:48;;;;;;;;;;;;;;;20.79;44.35;101283.84;5005051;28;19918;-88
2023/05/08 07:39:16;;;;;;;;;;;;;;;20.92;44.71;101276.66;4990428;28;19921;-88
2023/05/08 07:41:49;;;;;;;;;;;;;;;20.41;44.91;101281.75;5007344;28;19926;-88
2023/05/08 07:44:16;;;;;;;;;;;;;;;20.32;45.21;101290.38;5009215;28;19990;-90
2023/05/08 07:46:43;;;;;;;;;;;;;;;20.94;43.73;101294.53;5011300;28;19918;-87
2023/05/08 07:49:09;;;;;;;;;;;;;;;20.87;43.25;101288.25;4993459;28;20012;-87
2023/05/08 07:51:34;;;;;;;;;;;;;;;21.62;42.32;101288.59;5010906;28;19964;-87
2023/05/08 07:54:00;;;;;;;;;;;;;;;22.21;40.98;101285.72;5004867;28;19999;-89
2023/05/08 07:56:26;;;;;;;;;;;;;;;22.92;39.76;101293.50;5011016;28;20055;-91
2023/05/08 07:58:52;;;;;;;;;;;;;;;23.59;38.17;101298.19;5011700;28;20352;-88
2023/05/08 08:01:17;;;;;;;;;;;;;;;23.41;36.77;101296.28;4991456;28;19921;-88
2023/05/08 08:03:44;;;;;;;;;;;;;;;23.22;38.36;101286.41;4971102;28;19929;-90
2023/05/08 08:06:10;;;;;;;;;;;;;;;23.12;37.65;101284.22;4994924;28;20382;-88
2023/05/08 08:08:36;;;;;;;;;;;;;;;22.72;38.80;101279.16;5015215;28;19918;-87
2023/05/08 08:11:01;;;;;;;;;;;;;;;22.65;39.15;101268.25;5002682;28;20012;-88
2023/05/08 08:13:28;;;;;;;;;;;;;;;22.99;38.39;101276.13;5009350;28;19932;-86
2023/05/08 08:15:58;;;;;;;;;;;;;;;22.70;39.01;101275.78;5011061;28;19929;-91
2023/05/08 08:18:26;;;;;;;;;;;;;;;23.17;38.50;101270.66;4994123;28;19969;-88
2023/05/08 08:20:56;;;;;;;;;;;;;;;23.24;37.18;101273.31;4977874;28;20003;-90
2023/05/08 08:23:22;;;;;;;;;;;;;;;22.89;39.78;101279.38;4994821;28;20415;-88
2023/05/08 08:25:52;;;;;;;;;;;;;;;23.69;38.99;101284.72;4992379;28;19918;-88
2023/05/08 08:28:18;;;;;;;;;;;;;;;23.32;38.59;101282.06;5003261;28;19929;-86
2023/05/08 08:30:46;;;;;;;;;;;;;;;22.13;40.05;101284.91;4993430;28;20024;-86
2023/05/08 08:33:11;;;;;;;;;;;;;;;22.44;39.93;101279.63;5001465;28;19945;-85
2023/05/08 08:35:48;;;;;;;;;;;;;;;23.06;39.83;101265.94;4988992;28;19926;-90
2023/05/08 08:38:15;;;;;;;;;;;;;;;23.57;38.70;101265.47;4989519;28;19917;-87
2023/05/08 08:40:41;;;;;;;;;;;;;;;24.68;36.52;101253.16;4986465;28;20313;-85
2023/05/08 08:43:08;;;;;;;;;;;;;;;25.20;35.06;101256.81;5005034;28;19929;-86
2023/05/08 08:45:35;;;;;;;;;;;;;;;25.93;33.64;101254.34;4991402;28;20136;-88
2023/05/08 08:48:00;;;;;;;;;;;;;;;26.34;33.08;101252.28;4997770;28;19937;-86
2023/05/08 08:50:28;;;;;;;;;;;;;;;26.53;33.26;101250.06;5010803;28;20005;-88
2023/05/08 08:53:06;;;;;;;;;;;;;;;28.35;30.86;101242.44;4987249;28;20008;-86
2023/05/08 08:55:31;;;;;;;;;;;;;;;28.31;31.31;101236.63;5006423;28;19930;-86
2023/05/08 08:58:13;;;;;;;;;;;;;;;27.86;31.44;101245.38;4986889;28;20009;-86
2023/05/08 09:00:39;;;;;;;;;;;;;;;28.94;29.23;101249.72;4989519;28;20014;-87
2023/05/08 09:03:06;;;;;;;;;;;;;;;28.69;29.08;101239.38;4985825;28;20024;-88
2023/05/08 09:05:32;;;;;;;;;;;;;;;26.74;32.20;101241.03;4984268;28;19934;-86
2023/05/08 09:07:57;;;;;;;;;;;;;;;24.86;35.00;101250.25;4983064;28;19922;-86
2023/05/08 09:10:25;;;;;;;;;;;;;;;24.75;36.83;101240.97;4985194;28;19950;-88
2023/05/08 09:13:01;;;;;;;;;;;;;;;24.53;37.86;101240.75;4989592;28;20410;-88
2023/05/08 09:15:26;;;;;;;;;;;;;;;24.90;37.14;101242.38;4981897;28;20405;-87
2023/05/08 09:17:51;;;;;;;;;;;;;;;24.81;37.56;101231.75;4987789;28;19926;-88
2023/05/08 09:20:17;;;;;;;;;;;;;;;24.07;37.85;101228.66;4988488;28;19925;-89
2023/05/08 09:22:43;;;;;;;;;;;;;;;23.53;40.38;101244.22;4987425;28;20390;-87
2023/05/08 09:25:09;;;;;;;;;;;;;;;23.10;41.58;101250.69;4988994;28;19922;-90
2023/05/08 09:27:35;;;;;;;;;;;;;;;23.88;40.77;101246.25;4989023;28;19945;-88
2023/05/08 09:30:04;;;;;;;;;;;;;;;23.96;40.30;101243.19;4986445;28;20378;-85
2023/05/08 09:32:30;;;;;;;;;;;;;;;23.23;41.48;101253.28;5001093;28;19944;-86
2023/05/08 09:34:56;;;;;;;;;;;;;;;23.73;41.17;101254.91;4989309;28;20397;-85
2023/05/08 09:37:21;;;;;;;;;;;;;;;23.37;41.41;101257.53;4988314;28;19980;-88
2023/05/08 09:39:48;;;;;;;;;;;;;;;23.78;39.88;101257.81;4988961;28;19941;-87
2023/05/08 09:42:14;;;;;;;;;;;;;;;24.76;37.95;101253.63;4992761;28;20025;-86
2023/05/08 09:44:52;;;;;;;;;;;;;;;24.62;37.36;101242.06;5002990;28;19936;-90
2023/05/08 09:47:19;;;;;;;;;;;;;;;26.86;34.79;101253.88;4988998;28;19918;-87
2023/05/08 09:50:04;;;;;;;;;;;;;;;28.24;32.20;101247.09;5000467;28;19929;-87
2023/05/08 09:52:31;;;;;;;;;;;;;;;26.43;35.32;101250.72;5008152;28;19953;-81
2023/05/08 09:55:04;;;;;;;;;;;;;;;26.18;34.56;101253.94;5010363;28;19906;-87
2023/05/08 09:57:32;;;;;;;;;;;;;;;24.67;35.35;101255.06;5007708;28;19988;-85
2023/05/08 10:00:00;;;;;;;;;;;;;;;23.80;36.78;101252.94;5013511;28;19980;-85
2023/05/08 10:02:30;;;;;;;;;;;;;;;24.09;37.24;101250.38;5011616;28;19943;-88
2023/05/08 10:04:59;;;;;;;;;;;;;;;25.91;34.35;101242.72;4993806;28;19923;-91
2023/05/08 10:07:32;;;;;;;;;;;;;;;25.48;34.82;101255.16;5009474;28;20309;-87
2023/05/08 10:10:01;;;;;;;;;;;;;;;25.40;34.61;101264.66;5003246;28;19917;-86
2023/05/08 10:12:27;;;;;;;;;;;;;;;25.64;34.70;101254.34;4977337;28;20299;-86
2023/05/08 10:14:52;;;;;;;;;;;;;;;25.50;33.17;101253.00;4979414;28;19918;-86
2023/05/08 10:17:20;;;;;;;;;;;;;;;26.76;32.72;101242.69;4988302;28;19921;-87
2023/05/08 10:19:45;;;;;;;;;;;;;;;26.28;34.01;101248.59;5002479;28;19940;-87
2023/05/08 10:22:10;;;;;;;;;;;;;;;27.72;31.03;101244.94;5005486;28;19921;-86
2023/05/08 10:24:36;;;;;;;;;;;;;;;27.06;31.84;101254.13;4989342;28;19924;-87
2023/05/08 10:27:04;;;;;;;;;;;;;;;27.98;29.95;101246.88;4983356;28;19928;-86
2023/05/08 10:29:36;;;;;;;;;;;;;;;29.33;28.96;101249.38;4991624;28;19960;-87
2023/05/08 10:32:02;;;;;;;;;;;;;;;28.53;29.61;101252.28;4992775;28;20332;-85
2023/05/08 10:34:27;;;;;;;;;;;;;;;29.92;28.61;101239.78;5013365;28;19937;-86
2023/05/08 10:36:53;;;;;;;;;;;;;;;30.35;27.17;101241.19;4995288;28;20012;-88
2023/05/08 10:39:20;;;;;;;;;;;;;;;26.52;32.68;101231.84;5013956;28;19989;-87
2023/05/08 10:41:46;;;;;;;;;;;;;;;24.45;36.51;101235.59;4995370;28;19980;-86
2023/05/08 10:44:12;;;;;;;;;;;;;;;24.58;35.65;101229.88;4978359;28;20266;-87
2023/05/08 10:46:44;;;;;;;;;;;;;;;23.02;38.71;101231.84;5012742;28;19917;-88
2023/05/08 10:49:33;;;;;;;;;;;;;;;22.51;40.59;101231.91;4991344;28;20295;-88
2023/05/08 10:52:11;;;;;;;;;;;;;;;22.81;40.29;101235.84;5006040;28;19921;-86
2023/05/08 10:54:38;;;;;;;;;;;;;;;23.60;38.79;101228.50;4984767;28;19984;-87
2023/05/08 10:57:11;;;;;;;;;;;;;;;24.48;37.27;101226.88;4999681;28;19937;-87
2023/05/08 10:59:44;;;;;;;;;;;;;;;24.68;36.80;101231.16;4994860;28;19922;-88
2023/05/08 11:02:09;;;;;;;;;;;;;;;23.77;38.55;101240.53;4978662;28;19921;-87
2023/05/08 11:04:37;;;;;;;;;;;;;;;23.16;39.39;101242.41;4994534;28;19925;-86
2023/05/08 11:07:03;;;;;;;;;;;;;;;22.59;41.23;101240.91;4994066;28;19968;-85
2023/05/08 11:09:46;;;;;;;;;;;;;;;23.45;39.63;101241.81;4994599;28;20000;-87
2023/05/08 11:12:17;;;;;;;;;;;;;;;23.18;39.66;101242.19;4994211;28;20017;-86
2023/05/08 11:14:45;;;;;;;;;;;;;;;22.77;40.30;101236.28;5012499;28;20039;-85
2023/05/08 11:17:10;;;;;;;;;;;;;;;22.92;40.19;101241.41;4994277;28;19929;-86
2023/05/08 11:19:37;;;;;;;;;;;;;;;22.44;40.79;101246.75;4994922;28;19944;-85
2023/05/08 11:22:15;;;;;;;;;;;;;;;21.50;42.81;101241.13;4994015;28;19937;-86
2023/05/08 11:24:55;;;;;;;;;;;;;;;20.82;43.84;101245.16;4994316;28;20449;-86
2023/05/08 11:27:30;;;;;;;;;;;;;;;20.97;43.01;101244.06;5011023;28;19932;-85
2023/05/08 11:30:14;;;;;;;;;;;;;;;20.52;45.02;101252.13;4978028;28;20285;-86
2023/05/08 11:33:06;;;;;;;;;;;;;;;20.58;45.50;101243.09;5010968;28;20222;-88
2023/05/08 11:35:41;;;;;;;;;;;;;;;20.36;46.20;101256.97;5008125;28;19942;-88
2023/05/08 11:38:12;;;;;;;;;;;;;;;20.17;46.72;101261.38;5010084;28;20296;-86
2023/05/08 11:41:04;;;;;;;;;;;;;;;20.41;46.37;101259.91;4991255;28;19971;-87
2023/05/08 11:43:41;;;;;;;;;;;;;;;20.40;46.29;101250.03;4980199;28;19925;-86
2023/05/08 11:46:12;;;;;;;;;;;;;;;20.49;45.52;101245.22;4976771;28;19944;-86
2023/05/08 11:48:37;;;;;;;;;;;;;;;20.80;44.87;101241.81;5003673;28;19993;-88
2023/05/08 11:51:04;;;;;;;;;;;;;;;20.97;44.71;101242.16;5011715;28;20263;-85
2023/05/08 11:53:30;;;;;;;;;;;;;;;19.90;47.02;101252.38;5005695;28;20029;-86
2023/05/08 11:55:55;;;;;;;;;;;;;;;19.55;48.54;101248.88;4976689;28;20380;-86
2023/05/08 11:58:21;;;;;;;;;;;;;;;20.31;47.40;101254.03;5011152;28;19992;-86
2023/05/08 12:00:47;;;;;;;;;;;;;;;19.85;48.53;101237.66;4992120;28;19921;-86
2023/05/08 12:03:14;;;;;;;;;;;;;;;19.61;49.41;101240.72;4977728;28;20440;-86
2023/05/08 12:05:41;;;;;;;;;;;;;;;18.53;52.80;101253.22;5010565;28;19972;-86
2023/05/08 12:08:06;;;;;;;;;;;;;;;18.06;54.02;101247.41;4994552;28;19928;-86
2023/05/08 12:10:32;;;;;;;;;;;;;;;17.91;55.10;101239.34;4973667;28;20116;-84
2023/05/08 12:12:57;;;;;;;;;;;;;;;18.23;54.85;101238.97;4994470;28;19926;-86
2023/05/08 12:15:23;;;;;;;;;;;;;;;18.24;54.40;101252.38;4994135;28;19917;-86
2023/05/08 12:17:50;;;;;;;;;;;;;;;18.12;55.06;101248.50;5015920;28;20504;-84
2023/05/08 12:20:17;;;;;;;;;;;;;;;18.12;54.69;101245.75;4978113;28;19991;-86
2023/05/08 12:22:49;;;;;;;;;;;;;;;18.25;54.57;101247.78;5011353;28;20418;-84
2023/05/08 12:25:15;;;;;;;;;;;;;;;17.49;53.03;101243.69;5009881;28;19921;-85
2023/05/08 12:27:40;;;;;;;;;;;;;;;17.14;54.50;101244.50;4992424;28;19932;-85
2023/05/08 12:30:08;;;;;;;;;;;;;;;17.45;54.42;101234.22;4993293;28;20271;-87
2023/05/08 12:32:38;;;;;;;;;;;;;;;17.69;53.42;101238.44;5012193;28;19939;-85
2023/05/08 12:35:07;;;;;;;;;;;;;;;17.22;53.48;101231.66;4978282;28;20361;-85
2023/05/08 12:37:32;;;;;;;;;;;;;;;17.05;55.04;101233.75;4991864;28;19918;-87
2023/05/08 12:39:59;;;;;;;;;;;;;;;17.23;55.02;101237.94;4983029;28;20029;-89
2023/05/08 12:42:45;;;;;;;;;;;;;;;17.22;55.07;101230.81;4990210;28;20008;-86
2023/05/08 12:45:19;;;;;;;;;;;;;;;16.96;53.70;101226.75;5009353;28;19928;-86
2023/05/08 12:47:47;;;;;;;;;;;;;;;17.05;55.15;101233.75;4990754;28;20401;-86
2023/05/08 12:50:14;;;;;;;;;;;;;;;17.57;54.52;101222.84;4996597;28;19940;-87
2023/05/08 12:52:39;;;;;;;;;;;;;;;17.56;52.95;101223.88;5008990;28;19909;-88
2023/05/08 12:55:05;;;;;;;;;;;;;;;17.65;53.35;101225.44;5013683;28;19925;-88
2023/05/08 12:57:34;;;;;;;;;;;;;;;17.78;53.26;101222.84;5016928;28;19926;-88
2023/05/08 13:00:03;;;;;;;;;;;;;;;17.68;52.98;101220.47;5009442;28;20358;-86
2023/05/08 13:02:29;;;;;;;;;;;;;;;17.67;53.07;101221.47;4981494;28;19956;-88
2023/05/08 13:04:55;;;;;;;;;;;;;;;17.71;53.06;101213.78;5012223;28;20016;-86
2023/05/08 13:07:23;;;;;;;;;;;;;;;18.25;51.40;101221.38;4993872;28;20416;-89
2023/05/08 13:09:57;;;;;;;;;;;;;;;18.39;51.41;101218.78;4991850;28;19967;-87
2023/05/08 13:12:22;;;;;;;;;;;;;;;18.41;50.78;101225.69;4977715;28;19969;-87
2023/05/08 13:14:48;;;;;;;;;;;;;;;17.96;52.14;101233.31;4993718;28;19921;-87
2023/05/08 13:17:18;;;;;;;;;;;;;;;18.62;50.74;101234.84;4993522;28;19928;-87
2023/05/08 13:19:43;;;;;;;;;;;;;;;18.56;51.03;101233.75;4994209;28;19929;-86
2023/05/08 13:22:09;;;;;;;;;;;;;;;18.72;51.21;101219.81;5012237;28;19932;-89
2023/05/08 13:24:36;;;;;;;;;;;;;;;18.97;49.95;101214.72;4994746;28;19940;-87
2023/05/08 13:27:01;;;;;;;;;;;;;;;18.79;50.80;101221.78;4990363;28;20031;-86